Time;durP1;ratioP1;P1;durP2;ratioP2;P2;SDS_P1;SDS_P2;PMS_P1;PMS_P2;Temp;Humidity;BMP_temperature;BMP_pressure;BME280_temperature;BME280_humidity;BME280_pressure;Samples;Min_cycle;Max_cycle;Signal;HPM_P1;HPM_P2
2022/11/08 00:01:35;;;;;;;72.77;35.83;;;;;;;-141.97;81.61;47784.34;5053221;28;20168;-79
2022/11/08 00:04:07;;;;;;;68.87;35.73;;;;;;;-141.97;82.44;47749.72;5034963;28;20178;-79
2022/11/08 00:14:48;;;;;;;65.07;33.70;;;;;;;-141.97;84.63;47799.72;5052871;28;20218;-79
2022/11/08 00:17:15;;;;;;;72.60;34.03;;;;;;;-141.97;85.58;47763.19;5052812;28;20153;-78
2022/11/08 00:19:41;;;;;;;65.63;34.17;;;;;;;-141.97;85.79;47792.03;5053470;28;20161;-78
2022/11/08 00:22:07;;;;;;;66.30;34.23;;;;;;;-141.97;85.13;47767.03;5054164;28;20189;-78
2022/11/08 00:24:33;;;;;;;69.23;33.07;;;;;;;-141.97;84.75;47745.88;5053831;28;20168;-79
2022/11/08 00:26:59;;;;;;;62.77;33.73;;;;;;;-141.97;84.11;47776.63;5052813;28;20189;-78
2022/11/08 00:29:25;;;;;;;66.77;33.13;;;;;;;-141.97;84.26;47813.16;5053562;28;20161;-79
2022/11/08 00:31:50;;;;;;;70.27;33.23;;;;;;;-141.97;84.92;47792.03;5054546;28;20588;-79
2022/11/08 00:34:16;;;;;;;68.90;34.70;;;;;;;-141.97;85.69;47868.91;5053441;28;20192;-79
2022/11/08 00:36:41;;;;;;;72.63;35.07;;;;;;;-141.97;86.63;47776.63;5053022;28;20244;-79
2022/11/08 00:39:06;;;;;;;65.87;34.20;;;;;;;-141.97;87.50;47784.34;5056630;28;20618;-79
2022/11/08 00:41:32;;;;;;;73.10;35.87;;;;;;;-141.97;88.19;47805.47;5056158;28;20169;-80
2022/11/08 00:43:57;;;;;;;75.90;35.13;;;;;;;-141.97;88.05;47768.94;5056309;28;20227;-79
2022/11/08 00:46:23;;;;;;;71.47;35.60;;;;;;;-141.97;88.63;47761.25;5056108;28;20526;-80
2022/11/08 00:48:48;;;;;;;78.97;36.53;;;;;;;-141.97;88.34;47763.19;5056336;28;20585;-79
2022/11/08 00:51:14;;;;;;;69.93;34.57;;;;;;;-141.97;87.72;47759.34;5056161;28;20195;-80
2022/11/08 00:53:39;;;;;;;75.23;35.80;;;;;;;-141.97;87.84;47761.25;5056344;28;20166;-79
2022/11/08 00:56:08;;;;;;;74.00;35.83;;;;;;;-141.97;87.47;47799.72;5055875;28;20625;-79
2022/11/08 00:58:34;;;;;;;79.10;36.33;;;;;;;-141.97;87.32;47763.19;5056041;28;20165;-80
2022/11/08 01:00:59;;;;;;;74.10;36.43;;;;;;;-141.97;86.72;47790.09;5055873;28;20162;-80
2022/11/08 01:03:25;;;;;;;71.60;37.10;;;;;;;-141.97;86.10;47788.19;5055911;28;20170;-80
2022/11/08 01:05:53;;;;;;;72.17;36.27;;;;;;;-141.97;85.82;47757.41;5055910;28;20652;-80
2022/11/08 01:08:20;;;;;;;76.87;36.20;;;;;;;-141.97;85.88;47778.56;5055965;28;20161;-80
2022/11/08 01:10:49;;;;;;;71.47;36.27;;;;;;;-141.97;85.63;47803.56;5055901;28;20161;-80
2022/11/08 01:13:14;;;;;;;71.80;35.40;;;;;;;-141.97;84.98;47784.34;5056019;28;20622;-80
2022/11/08 01:15:42;;;;;;;69.93;34.93;;;;;;;-141.97;84.36;47757.41;5056007;28;20214;-80
2022/11/08 01:18:09;;;;;;;70.70;36.03;;;;;;;-141.97;83.63;47747.81;5056052;28;20165;-79
2022/11/08 01:20:38;;;;;;;72.20;36.43;;;;;;;-141.97;83.24;47743.97;5055900;28;20172;-79
2022/11/08 01:23:04;;;;;;;73.03;36.23;;;;;;;-141.97;83.54;47915.03;5055703;28;20168;-79
2022/11/08 01:25:29;;;;;;;67.67;35.10;;;;;;;-141.97;83.33;47763.19;5055388;28;20551;-79
2022/11/08 01:27:55;;;;;;;73.87;36.07;;;;;;;-141.97;83.33;47763.19;5055502;28;20165;-78
2022/11/08 01:30:20;;;;;;;71.03;35.63;;;;;;;-141.97;83.65;47817.00;5055402;28;20192;-78
2022/11/08 01:32:46;;;;;;;70.20;36.40;;;;;;;-141.97;83.51;47755.50;5055621;28;20157;-79
2022/11/08 01:35:11;;;;;;;73.00;37.73;;;;;;;-141.97;83.48;47776.63;5055278;28;20308;-80
2022/11/08 01:37:36;;;;;;;78.47;37.33;;;;;;;-141.97;83.33;47742.03;5055422;28;20243;-80
2022/11/08 01:40:03;;;;;;;72.87;37.43;;;;;;;-141.97;83.40;47784.34;5055460;28;20220;-80
2022/11/08 01:42:32;;;;;;;68.70;36.70;;;;;;;-141.97;83.61;47761.25;5055318;28;20248;-80
2022/11/08 01:45:04;;;;;;;75.50;37.33;;;;;;;-141.97;83.58;47768.94;5055072;28;20233;-80
2022/11/08 01:47:30;;;;;;;72.40;36.97;;;;;;;-141.97;83.25;47765.09;5054582;28;20287;-80
2022/11/08 01:50:15;;;;;;;71.83;37.10;;;;;;;-141.97;83.46;47799.72;5054927;28;20196;-79
2022/11/08 01:52:47;;;;;;;75.33;37.20;;;;;;;-141.97;82.96;47784.34;5055075;28;20161;-79
2022/11/08 01:55:12;;;;;;;73.77;37.63;;;;;;;-141.97;82.83;47778.56;5055144;28;20166;-79
2022/11/08 01:57:49;;;;;;;76.37;37.30;;;;;;;-141.97;83.14;47809.31;5055035;28;20271;-78
2022/11/08 02:00:16;;;;;;;70.50;36.97;;;;;;;-141.97;82.45;47734.34;5054936;28;20225;-79
2022/11/08 02:02:44;;;;;;;76.50;37.33;;;;;;;-141.97;82.54;47734.34;5054913;28;20572;-79
2022/11/08 02:08:14;;;;;;;78.47;39.43;;;;;;;-141.97;81.72;47768.94;4993039;28;20682;-79
2022/11/08 02:10:43;;;;;;;84.80;43.10;;;;;;;-141.97;82.00;47768.94;4977030;28;21003;-80
2022/11/08 02:13:12;;;;;;;86.43;44.03;;;;;;;-141.97;81.98;47763.19;4993481;28;20383;-79
2022/11/08 02:15:38;;;;;;;94.93;46.93;;;;;;;-141.97;81.83;47780.47;4993314;28;20660;-79
2022/11/08 02:18:04;;;;;;;86.93;43.20;;;;;;;-141.97;81.66;47768.94;4993284;28;20164;-80
2022/11/08 02:20:31;;;;;;;78.83;39.00;;;;;;;-141.97;81.35;47749.72;4993201;28;20292;-79
2022/11/08 02:23:26;;;;;;;78.90;38.03;;;;;;;-141.97;81.70;47780.47;4993140;28;20295;-79
2022/11/08 02:25:51;;;;;;;72.77;38.23;;;;;;;-141.97;81.75;47688.22;4992915;28;20563;-79
2022/11/08 02:28:17;;;;;;;76.00;37.93;;;;;;;-141.97;81.75;47793.94;4993266;28;20198;-79
2022/11/08 02:30:43;;;;;;;69.77;37.60;;;;;;;-141.97;82.27;47786.25;4992937;28;20178;-79
2022/11/08 02:33:16;;;;;;;73.33;36.83;;;;;;;-141.97;82.59;47799.72;4993015;28;20191;-79
2022/11/08 02:35:45;;;;;;;75.50;36.90;;;;;;;-141.97;82.64;47770.88;4992670;28;20231;-79
2022/11/08 02:38:11;;;;;;;75.37;37.57;;;;;;;-141.97;83.02;47782.41;4992831;28;20198;-78
2022/11/08 02:40:50;;;;;;;73.47;38.20;;;;;;;-141.97;83.23;47734.34;4993197;28;20175;-79
2022/11/08 02:43:16;;;;;;;74.77;37.93;;;;;;;-141.97;83.03;47776.63;4992870;28;20663;-78
2022/11/08 02:45:42;;;;;;;75.37;39.60;;;;;;;-141.97;83.56;47863.13;5044339;28;20295;-79
2022/11/08 02:48:08;;;;;;;81.57;40.20;;;;;;;-141.97;83.86;47780.47;5053826;28;20157;-79
2022/11/08 02:50:33;;;;;;;79.83;39.13;;;;;;;-141.97;84.16;47776.63;5053680;28;20165;-78
2022/11/08 02:52:59;;;;;;;82.97;39.47;;;;;;;-141.97;84.70;47759.34;5054147;28;20617;-79
2022/11/08 02:55:24;;;;;;;78.10;39.47;;;;;;;-141.97;84.75;47788.19;5053703;28;20162;-79
2022/11/08 02:57:50;;;;;;;81.47;40.50;;;;;;;-141.97;84.21;47738.19;5053945;28;20656;-79
2022/11/08 03:00:16;;;;;;;77.23;38.47;;;;;;;-141.97;84.04;47772.78;5035026;28;20609;-79
2022/11/08 03:02:41;;;;;;;74.00;38.53;;;;;;;-141.97;84.20;47776.63;5053599;28;20181;-79
2022/11/08 03:05:06;;;;;;;83.20;38.80;;;;;;;-141.97;84.03;47801.63;5053688;28;20181;-79
2022/11/08 03:07:32;;;;;;;76.53;38.37;;;;;;;-141.97;84.55;47749.72;5053452;28;20264;-79
2022/11/08 03:09:57;;;;;;;80.07;39.30;;;;;;;-141.97;84.42;47757.41;5053711;28;20165;-81
2022/11/08 03:12:23;;;;;;;81.93;39.50;;;;;;;-141.97;84.67;47765.09;5053643;28;20166;-79
2022/11/08 03:14:48;;;;;;;80.63;39.57;;;;;;;-141.97;84.70;47793.94;5053205;28;20176;-80
2022/11/08 03:17:13;;;;;;;76.50;38.80;;;;;;;-141.97;84.55;47761.25;5053552;28;20185;-80
2022/11/08 03:19:39;;;;;;;76.30;39.33;;;;;;;-141.97;84.22;47768.94;5053920;28;20157;-78
2022/11/08 03:22:04;;;;;;;77.67;39.00;;;;;;;-141.97;83.94;47776.63;5053420;28;20602;-78
2022/11/08 03:24:29;;;;;;;77.93;38.90;;;;;;;-141.97;83.94;47730.50;5053741;28;20181;-79
2022/11/08 03:26:55;;;;;;;77.67;39.53;;;;;;;-141.97;84.25;47772.78;5053665;28;20173;-80
2022/11/08 03:29:20;;;;;;;75.83;37.97;;;;;;;-141.97;84.33;47788.19;5053384;28;20157;-78
2022/11/08 03:31:46;;;;;;;79.97;38.77;;;;;;;-141.97;84.06;47743.97;5053387;28;20189;-79
2022/11/08 03:34:11;;;;;;;86.33;40.27;;;;;;;-141.97;85.82;47768.94;5053429;28;20597;-79
2022/11/08 03:36:36;;;;;;;76.03;39.40;;;;;;;-141.97;86.59;47786.25;5052920;28;20259;-79
2022/11/08 03:39:02;;;;;;;87.23;39.90;;;;;;;-141.97;86.27;47720.91;5053250;28;20255;-79
2022/11/08 03:41:27;;;;;;;81.83;40.33;;;;;;;-141.97;86.44;47768.94;5053473;28;20170;-78
2022/11/08 03:43:53;;;;;;;80.23;40.43;;;;;;;-141.97;86.26;47763.19;5052820;28;20253;-78
2022/11/08 03:46:18;;;;;;;78.13;39.07;;;;;;;-141.97;86.05;47822.78;5053049;28;20193;-79
2022/11/08 03:48:43;;;;;;;82.30;39.80;;;;;;;-141.97;86.31;47765.09;5053062;28;20172;-79
2022/11/08 03:51:09;;;;;;;78.60;40.53;;;;;;;-141.97;86.17;47753.56;5053222;28;20249;-79
2022/11/08 03:53:34;;;;;;;79.33;40.07;;;;;;;-141.97;86.35;47738.19;5053220;28;20189;-79
2022/11/08 03:56:00;;;;;;;82.70;41.30;;;;;;;-141.97;86.19;47836.22;5052860;28;20157;-80
2022/11/08 03:58:26;;;;;;;84.37;40.87;;;;;;;-141.97;86.25;47759.34;5053111;28;20171;-79
2022/11/08 04:00:52;;;;;;;94.70;41.80;;;;;;;-141.97;86.05;47772.78;5053090;28;20172;-79
2022/11/08 04:03:17;;;;;;;81.10;40.67;;;;;;;-141.97;85.95;47753.56;5053033;28;20165;-79
2022/11/08 04:05:42;;;;;;;78.13;40.83;;;;;;;-141.97;85.42;47784.34;5052857;28;20169;-79
2022/11/08 04:08:08;;;;;;;81.63;41.17;;;;;;;-141.97;85.00;47797.78;5052965;28;20176;-78
2022/11/08 04:10:33;;;;;;;76.17;39.67;;;;;;;-141.97;84.67;47749.72;5053132;28;20564;-78
2022/11/08 04:16:00;;;;;;;77.83;39.30;;;;;;;-141.97;84.83;47786.25;4995702;28;20158;-79
2022/11/08 04:21:19;;;;;;;77.47;39.57;;;;;;;-141.97;85.62;47793.94;4995265;28;20181;-79
2022/11/08 04:23:45;;;;;;;87.07;41.40;;;;;;;-141.97;85.37;47745.88;4995081;28;20249;-79
2022/11/08 04:26:11;;;;;;;91.13;43.93;;;;;;;-141.97;85.04;47782.41;4995471;28;20274;-79
2022/11/08 04:28:39;;;;;;;133.83;56.77;;;;;;;-141.97;85.17;47743.97;4995312;28;20172;-78
2022/11/08 04:31:12;;;;;;;162.10;70.00;;;;;;;-141.97;84.90;47784.34;4995443;28;20251;-79
2022/11/08 04:33:37;;;;;;;229.23;91.43;;;;;;;-141.97;84.43;47778.56;4995433;28;20163;-79
2022/11/08 04:36:06;;;;;;;102.43;49.50;;;;;;;-141.97;84.32;47755.50;4985596;28;20595;-79
2022/11/08 04:38:32;;;;;;;111.03;55.03;;;;;;;-141.97;84.42;47792.03;5006947;28;20192;-79
2022/11/08 04:41:06;;;;;;;116.67;54.10;;;;;;;-141.97;84.24;47763.19;5012088;28;20613;-79
2022/11/08 04:43:32;;;;;;;104.57;48.67;;;;;;;-141.97;84.38;47772.78;5014520;28;20714;-79
2022/11/08 04:46:03;;;;;;;103.10;51.00;;;;;;;-141.97;84.73;47799.72;5026160;28;20734;-79
2022/11/08 04:48:30;;;;;;;118.60;57.27;;;;;;;-141.97;84.80;47742.03;5011694;28;20217;-79
2022/11/08 04:51:00;;;;;;;105.80;51.87;;;;;;;-141.97;84.92;47767.03;5048446;28;20193;-78
2022/11/08 04:53:28;;;;;;;102.40;49.53;;;;;;;-141.97;85.16;47780.47;5053281;28;20181;-79
2022/11/08 04:56:05;;;;;;;96.10;47.23;;;;;;;-141.97;84.87;47759.34;5057783;28;20196;-78
2022/11/08 04:58:42;;;;;;;103.97;47.93;;;;;;;-141.97;84.98;47757.41;5073162;28;20176;-78
2022/11/08 05:01:10;;;;;;;104.97;48.33;;;;;;;-141.97;85.20;47765.09;5072958;28;20184;-79
2022/11/08 05:03:35;;;;;;;105.47;50.90;;;;;;;-141.97;84.96;47761.25;5072818;28;20185;-79
2022/11/08 05:06:03;;;;;;;102.20;50.07;;;;;;;-141.97;84.95;47765.09;5073936;28;20204;-79
2022/11/08 05:08:29;;;;;;;155.47;69.30;;;;;;;-141.97;85.31;47776.63;5073158;28;20272;-79
2022/11/08 05:11:09;;;;;;;182.03;82.30;;;;;;;-141.97;85.44;47801.63;5053588;28;20283;-78
2022/11/08 05:13:35;;;;;;;98.63;49.43;;;;;;;-141.97;85.19;47763.19;5052630;28;20185;-78
2022/11/08 05:16:02;;;;;;;92.17;44.67;;;;;;;-141.97;85.00;47797.78;5053505;28;20193;-78
2022/11/08 05:18:28;;;;;;;90.20;42.47;;;;;;;-141.97;84.66;47786.25;5053471;28;20177;-78
2022/11/08 05:23:39;;;;;;;81.63;40.00;;;;;;;-141.97;84.31;47765.09;5052717;28;20197;-78
2022/11/08 05:26:04;;;;;;;79.57;39.97;;;;;;;-141.97;83.83;47770.88;5053284;28;20201;-78
2022/11/08 05:28:30;;;;;;;130.10;64.80;;;;;;;-141.97;83.69;47788.19;5052538;28;20212;-78
2022/11/08 05:30:55;;;;;;;109.57;52.43;;;;;;;-141.97;84.43;47755.50;5052240;28;20735;-78
2022/11/08 05:33:22;;;;;;;133.73;65.97;;;;;;;-141.97;84.43;47778.56;5065084;28;20195;-79
2022/11/08 05:35:48;;;;;;;121.13;58.07;;;;;;;-141.97;84.65;47809.31;5063141;28;20232;-79
2022/11/08 05:38:13;;;;;;;85.47;42.93;;;;;;;-141.97;84.91;47778.56;5072922;28;20176;-79
2022/11/08 05:40:38;;;;;;;90.43;39.97;;;;;;;-141.97;84.55;47792.03;5056279;28;20185;-78
2022/11/08 05:43:04;;;;;;;87.33;41.87;;;;;;;-141.97;84.18;47803.56;5052475;28;20185;-78
2022/11/08 05:45:29;;;;;;;80.43;39.93;;;;;;;-141.97;83.84;47795.88;5034567;28;20199;-79
2022/11/08 05:47:56;;;;;;;80.80;40.83;;;;;;;-141.97;83.75;47772.78;5035505;28;20217;-78
2022/11/08 05:50:23;;;;;;;83.60;41.30;;;;;;;-141.97;83.59;47730.50;5052128;28;20584;-79
2022/11/08 05:52:48;;;;;;;127.27;60.90;;;;;;;-141.97;83.70;47765.09;5052128;28;20180;-79
2022/11/08 05:55:14;;;;;;;86.50;43.63;;;;;;;-141.97;83.23;47795.88;5052650;28;20662;-80
2022/11/08 05:57:42;;;;;;;88.10;44.60;;;;;;;-141.97;83.36;47768.94;5052282;28;20684;-79
2022/11/08 06:00:09;;;;;;;91.30;43.93;;;;;;;-141.97;83.57;47782.41;5051735;28;20208;-80
2022/11/08 06:02:35;;;;;;;115.20;51.40;;;;;;;-141.97;83.22;47784.34;5052507;28;20181;-79
2022/11/08 06:05:01;;;;;;;100.33;46.80;;;;;;;-141.97;83.25;47797.78;5052627;28;20191;-78
2022/11/08 06:07:27;;;;;;;89.13;45.47;;;;;;;-141.97;82.93;47751.66;5051851;28;20213;-79
2022/11/08 06:09:52;;;;;;;92.97;45.10;;;;;;;-141.97;82.61;47765.09;5051476;28;20211;-79
2022/11/08 06:12:19;;;;;;;93.40;44.83;;;;;;;-141.97;82.58;47780.47;5052123;28;20272;-79
2022/11/08 06:14:44;;;;;;;92.83;45.67;;;;;;;-141.97;82.63;47776.63;5051372;28;20192;-79
2022/11/08 06:17:09;;;;;;;94.97;45.17;;;;;;;-141.97;82.65;47749.72;5051403;28;20193;-79
2022/11/08 06:19:35;;;;;;;90.30;45.17;;;;;;;-141.97;82.21;47749.72;5040074;28;20696;-79
2022/11/08 06:22:00;;;;;;;90.13;45.03;;;;;;;-141.97;81.98;47768.94;5071600;28;20211;-79
2022/11/08 06:24:25;;;;;;;82.10;43.37;;;;;;;-141.97;81.83;47778.56;5071484;28;20184;-78
2022/11/08 06:26:51;;;;;;;81.80;42.27;;;;;;;-141.97;81.80;47755.50;5071726;28;20208;-79
2022/11/08 06:29:16;;;;;;;83.90;41.33;;;;;;;-141.97;80.86;47790.09;5070235;28;20185;-79
2022/11/08 06:31:41;;;;;;;93.83;47.90;;;;;;;-141.97;80.77;47786.25;5051536;28;21407;-79
2022/11/08 06:34:07;;;;;;;96.43;46.23;;;;;;;-141.97;80.40;47738.19;5060430;28;20296;-78
2022/11/08 06:36:32;;;;;;;90.67;45.17;;;;;;;-141.97;79.76;47678.63;5050336;28;20221;-79
2022/11/08 06:38:58;;;;;;;95.80;46.13;;;;;;;-141.97;79.07;47809.31;5068344;28;20207;-80
2022/11/08 06:41:26;;;;;;;99.50;46.70;;;;;;;-141.97;79.32;47768.94;5071319;28;20184;-79
2022/11/08 06:43:51;;;;;;;100.10;47.53;;;;;;;-141.97;79.29;47797.78;5072752;28;20172;-78
2022/11/08 06:46:17;;;;;;;93.80;47.27;;;;;;;-141.97;79.59;47738.19;5073588;28;20207;-80
2022/11/08 06:48:42;;;;;;;103.53;50.07;;;;;;;-141.97;79.31;47778.56;5074594;28;20233;-80
2022/11/08 06:51:07;;;;;;;110.13;50.20;;;;;;;-141.97;78.98;47767.03;5074528;28;20180;-79
2022/11/08 06:53:33;;;;;;;95.10;46.67;;;;;;;-141.97;78.85;47792.03;5062441;28;20192;-81
2022/11/08 06:56:00;;;;;;;94.57;45.63;;;;;;;-141.97;78.60;47767.03;5051994;28;20736;-79
2022/11/08 06:58:25;;;;;;;92.50;43.30;;;;;;;-141.97;77.67;47745.88;5051130;28;20185;-80
2022/11/08 07:00:50;;;;;;;90.43;43.50;;;;;;;-141.97;77.09;47857.38;5051459;28;20191;-79
2022/11/08 07:03:16;;;;;;;94.50;44.33;;;;;;;-141.97;76.12;47755.50;5051003;28;20601;-81
2022/11/08 07:05:42;;;;;;;83.63;43.00;;;;;;;-141.97;74.82;47772.78;5050759;28;20231;-82
2022/11/08 07:08:07;;;;;;;95.07;45.27;;;;;;;-141.97;73.85;47768.94;5052558;28;20174;-80
2022/11/08 07:10:33;;;;;;;93.70;44.63;;;;;;;-141.97;72.78;47770.88;5050034;28;20205;-80
2022/11/08 07:13:04;;;;;;;91.87;45.33;;;;;;;-141.97;71.28;47751.66;5050124;28;20502;-80
2022/11/08 07:15:32;;;;;;;96.47;46.50;;;;;;;-141.97;69.85;47738.19;5050492;28;20208;-80
2022/11/08 07:18:17;;;;;;;94.20;44.40;;;;;;;-141.97;69.28;47738.19;5051250;28;20185;-80
2022/11/08 07:20:43;;;;;;;88.67;45.40;;;;;;;-141.97;69.74;47751.66;5052150;28;20196;-81
2022/11/08 07:23:09;;;;;;;83.60;43.40;;;;;;;-141.97;69.08;47778.56;5052761;28;20173;-79
2022/11/08 07:25:36;;;;;;;84.87;42.10;;;;;;;-141.97;68.13;47738.19;5050726;28;20209;-80
2022/11/08 07:28:04;;;;;;;84.90;42.83;;;;;;;-141.97;67.84;47736.28;5050706;28;20594;-79
2022/11/08 07:30:30;;;;;;;81.80;41.63;;;;;;;-141.97;66.61;47672.84;5041301;28;20609;-79
2022/11/08 07:32:56;;;;;;;72.73;37.70;;;;;;;-141.97;66.15;47765.09;5048953;28;20185;-80
2022/11/08 07:35:23;;;;;;;75.00;36.97;;;;;;;-141.97;66.54;47722.81;5050284;28;20228;-80
2022/11/08 07:37:48;;;;;;;72.00;37.43;;;;;;;-141.97;65.98;47776.63;5049501;28;20616;-80
2022/11/08 07:40:14;;;;;;;70.20;37.70;;;;;;;-141.97;65.52;47753.56;5050905;28;20181;-80
2022/11/08 07:42:40;;;;;;;80.23;37.60;;;;;;;-141.97;66.06;47763.19;5032574;28;20275;-79
2022/11/08 07:45:07;;;;;;;80.40;41.73;;;;;;;-141.97;66.73;47742.03;5049979;28;20265;-80
2022/11/08 07:47:33;;;;;;;74.23;37.03;;;;;;;-141.97;67.10;47753.56;5050590;28;20692;-79
2022/11/08 07:49:58;;;;;;;72.63;35.77;;;;;;;-141.97;67.41;47717.06;5051264;28;20180;-79
2022/11/08 07:52:23;;;;;;;73.37;37.53;;;;;;;-141.97;67.93;47765.09;5067066;28;20196;-79
2022/11/08 07:54:49;;;;;;;74.80;35.97;;;;;;;-141.97;68.63;47722.81;5050650;28;20200;-80
2022/11/08 07:57:14;;;;;;;71.93;36.20;;;;;;;-141.97;68.76;47886.22;5050303;28;20189;-79
2022/11/08 07:59:40;;;;;;;73.40;37.30;;;;;;;-141.97;69.27;47745.88;5047724;28;20184;-79
2022/11/08 08:02:05;;;;;;;74.03;37.07;;;;;;;-141.97;69.29;47728.59;5070645;28;20691;-79
2022/11/08 08:04:30;;;;;;;73.37;36.30;;;;;;;-141.97;70.26;47730.50;5050083;28;20181;-80
2022/11/08 08:06:59;;;;;;;73.00;37.70;;;;;;;-141.97;70.09;47755.50;5050339;28;20205;-79
2022/11/08 08:09:27;;;;;;;67.63;35.37;;;;;;;-141.97;68.17;47761.25;5049998;28;20196;-79
2022/11/08 08:11:52;;;;;;;74.80;36.27;;;;;;;-141.97;67.36;47742.03;5050554;28;20192;-80
2022/11/08 08:14:18;;;;;;;66.67;36.00;;;;;;;-141.97;67.58;47849.69;5049740;28;20185;-80
2022/11/08 08:16:43;;;;;;;72.13;35.50;;;;;;;-141.97;67.22;47882.38;5049781;28;20189;-80
2022/11/08 08:19:09;;;;;;;73.03;36.57;;;;;;;-141.97;67.36;47726.66;5050179;28;20186;-80
2022/11/08 08:21:34;;;;;;;68.83;36.03;;;;;;;-141.97;67.26;47761.25;5049673;28;20217;-79
2022/11/08 08:24:00;;;;;;;78.67;36.07;;;;;;;-141.97;67.26;47734.34;5049622;28;20189;-79
2022/11/08 08:26:25;;;;;;;82.77;35.43;;;;;;;-141.97;66.03;47711.28;5057148;28;20210;-80
2022/11/08 08:28:50;;;;;;;63.93;34.40;;;;;;;-141.97;66.62;47642.09;5061862;28;20196;-80
2022/11/08 08:31:16;;;;;;;68.77;34.17;;;;;;;-141.97;66.85;47715.13;5040391;28;20343;-80
2022/11/08 08:33:42;;;;;;;69.40;33.70;;;;;;;-141.97;65.80;47751.66;5050517;28;20209;-81
2022/11/08 08:36:07;;;;;;;60.53;32.20;;;;;;;-141.97;64.28;47734.34;5049754;28;20216;-80
2022/11/08 08:38:33;;;;;;;60.00;31.70;;;;;;;-141.97;62.41;47734.34;5049528;28;20196;-80
2022/11/08 08:41:00;;;;;;;58.20;30.60;;;;;;;-141.97;61.47;47726.66;5050419;28;20189;-80
2022/11/08 08:43:26;;;;;;;55.57;29.77;;;;;;;-141.97;62.50;47697.84;5049864;28;20250;-80
2022/11/08 08:45:53;;;;;;;54.40;29.33;;;;;;;-141.97;61.78;47740.13;5031613;28;20195;-79
2022/11/08 08:48:19;;;;;;;49.63;27.63;;;;;;;-141.97;61.66;47728.59;5049486;28;20192;-81
2022/11/08 08:50:45;;;;;;;54.47;28.23;;;;;;;-141.97;61.68;47699.75;5050640;28;20192;-81
2022/11/08 08:53:11;;;;;;;51.80;27.07;;;;;;;-141.97;61.83;47745.88;5050271;28;20189;-80
2022/11/08 08:55:38;;;;;;;47.40;25.77;;;;;;;-141.97;61.48;47722.81;5049665;28;20247;-79
2022/11/08 08:58:04;;;;;;;47.43;26.67;;;;;;;-141.97;60.89;47680.53;5033171;28;20189;-80
2022/11/08 09:00:30;;;;;;;49.33;26.70;;;;;;;-141.97;59.56;47684.38;5053618;28;20173;-81
2022/11/08 09:03:01;;;;;;;48.37;26.63;;;;;;;-141.97;59.23;47705.53;5053682;28;20750;-80
2022/11/08 09:05:27;;;;;;;45.83;27.03;;;;;;;-141.97;58.39;47711.28;5053928;28;20192;-81
2022/11/08 09:07:54;;;;;;;46.60;25.50;;;;;;;-141.97;57.29;47669.00;5053917;28;20205;-81
2022/11/08 09:10:19;;;;;;;43.33;25.10;;;;;;;-141.97;57.22;47709.38;5053199;28;20681;-80
2022/11/08 09:12:45;;;;;;;44.13;24.57;;;;;;;-141.97;56.84;47684.38;5035096;28;20196;-80
2022/11/08 09:15:10;;;;;;;44.97;25.90;;;;;;;-141.97;57.72;47726.66;5053357;28;20657;-79
2022/11/08 09:17:35;;;;;;;42.50;23.77;;;;;;;-141.97;56.13;47686.31;5053102;28;20221;-80
2022/11/08 09:20:02;;;;;;;41.43;24.17;;;;;;;-141.97;54.89;47718.97;5052721;28;20193;-79
2022/11/08 09:22:27;;;;;;;39.43;23.93;;;;;;;-141.97;54.86;47699.75;5053924;28;20181;-80
2022/11/08 09:24:53;;;;;;;39.90;24.33;;;;;;;-141.97;54.51;47684.38;5058234;28;20188;-80
2022/11/08 09:27:18;;;;;;;38.23;23.67;;;;;;;-141.97;53.32;47672.84;5067004;28;20206;-80
2022/11/08 09:29:43;;;;;;;42.80;25.30;;;;;;;-141.97;51.99;47684.38;5058924;28;20382;-80
2022/11/08 09:32:09;;;;;;;44.90;25.07;;;;;;;-141.97;51.87;47670.91;5043386;28;21221;-80
2022/11/08 09:34:35;;;;;;;39.97;23.03;;;;;;;-141.97;51.76;47670.91;5052651;28;20177;-80
2022/11/08 09:37:00;;;;;;;38.30;23.80;;;;;;;-141.97;51.33;47705.53;5052781;28;20239;-80
2022/11/08 09:39:26;;;;;;;37.60;23.47;;;;;;;-141.97;51.26;47742.03;5053152;28;20292;-81
2022/11/08 09:42:16;;;;;;;37.47;23.20;;;;;;;-141.97;51.30;47688.22;5052981;28;20776;-80
2022/11/08 09:44:47;;;;;;;42.43;23.13;;;;;;;-141.97;51.48;47682.47;5053130;28;20185;-80
2022/11/08 09:47:33;;;;;;;38.30;22.37;;;;;;;-141.97;51.27;47690.16;5053486;28;20264;-80
2022/11/08 09:50:05;;;;;;;39.33;23.63;;;;;;;-141.97;52.13;47680.53;5051817;28;20189;-80
2022/11/08 09:52:32;;;;;;;34.63;21.43;;;;;;;-141.97;52.04;47692.06;5051936;28;20634;-79
2022/11/08 09:55:21;;;;;;;35.57;22.23;;;;;;;-141.97;52.48;47690.16;5052695;28;20602;-80
2022/11/08 09:58:24;;;;;;;38.53;22.20;;;;;;;-141.97;51.91;47665.16;5052124;28;20201;-80
2022/11/08 10:00:50;;;;;;;34.70;21.97;;;;;;;-141.97;51.17;47680.53;5051754;28;20188;-80
2022/11/08 10:03:16;;;;;;;36.27;22.83;;;;;;;-141.97;51.19;47684.38;5034345;28;20192;-80
2022/11/08 10:06:05;;;;;;;39.00;21.60;;;;;;;-141.97;51.91;47669.00;5051884;28;20265;-80
2022/11/08 10:09:15;;;;;;;41.13;22.30;;;;;;;-141.97;52.53;47669.00;5051407;28;20188;-80
2022/11/08 10:12:02;;;;;;;36.87;21.60;;;;;;;-141.97;52.54;47678.63;4970703;28;20199;-78
2022/11/08 10:14:44;;;;;;;34.87;21.63;;;;;;;-141.97;53.01;47703.59;4954230;28;20216;-80
2022/11/08 10:17:31;;;;;;;36.60;22.50;;;;;;;-141.97;53.38;47694.00;4970793;28;20192;-79
2022/11/08 10:20:16;;;;;;;35.87;22.30;;;;;;;-141.97;53.68;47676.69;4983736;28;20187;-79
2022/11/08 10:23:26;;;;;;;36.20;22.57;;;;;;;-141.97;53.10;47757.41;4989787;28;20752;-79
2022/11/08 10:25:59;;;;;;;39.40;23.07;;;;;;;-141.97;52.72;47649.78;4910959;29;20201;-79
2022/11/08 10:28:49;;;;;;;40.00;22.13;;;;;;;-141.97;53.04;47626.72;4894266;29;20682;-79
2022/11/08 10:31:19;;;;;;;39.20;23.73;;;;;;;-141.97;53.18;47676.69;4904983;29;20272;-80
2022/11/08 10:33:51;;;;;;;39.70;22.80;;;;;;;-141.97;53.27;47684.38;4914352;29;20269;-79
2022/11/08 10:36:33;;;;;;;41.80;23.50;;;;;;;-141.97;53.59;47667.06;4914927;29;20230;-79
2022/11/08 10:39:13;;;;;;;41.33;23.80;;;;;;;-141.97;53.49;47661.31;4918709;29;20190;-85
2022/11/08 10:42:06;;;;;;;38.60;23.40;;;;;;;-141.97;52.82;47692.06;4921793;29;20742;-86
2022/11/08 10:44:33;;;;;;;43.07;23.30;;;;;;;-141.97;52.03;47651.69;4920456;29;20200;-87
2022/11/08 10:47:02;;;;;;;40.63;24.10;;;;;;;-141.97;52.51;47657.47;4923418;29;20225;-86
2022/11/08 10:49:36;;;;;;;37.83;22.23;;;;;;;-141.97;52.18;47638.25;4925002;29;20649;-85
2022/11/08 10:52:10;;;;;;;39.97;23.63;;;;;;;-141.97;52.25;47711.28;4914636;29;20729;-85
2022/11/08 10:54:50;;;;;;;34.00;22.83;;;;;;;-141.97;52.19;47669.00;4914839;29;20193;-84
2022/11/08 10:57:38;;;;;;;36.97;22.90;;;;;;;-141.97;52.54;47653.63;4933124;29;20189;-84
2022/11/08 11:00:22;;;;;;;40.83;22.63;;;;;;;-141.97;52.85;47703.59;4921177;29;21008;-84
2022/11/08 11:02:59;;;;;;;41.07;23.43;;;;;;;-141.97;53.26;47640.16;4983037;28;20289;-84
2022/11/08 11:05:34;;;;;;;36.80;22.50;;;;;;;-141.97;53.26;47695.91;5013543;28;20241;-84
2022/11/08 11:07:59;;;;;;;37.30;21.93;;;;;;;-141.97;52.89;47699.75;5013231;28;20210;-85
2022/11/08 11:10:24;;;;;;;41.47;25.40;;;;;;;-141.97;52.33;47663.22;5013204;28;20997;-85
2022/11/08 11:13:00;;;;;;;37.73;24.37;;;;;;;-141.97;51.60;47672.84;5022867;28;20269;-84
2022/11/08 11:15:44;;;;;;;42.60;27.40;;;;;;;-141.97;51.06;47657.47;5018370;28;20260;-83
2022/11/08 11:18:28;;;;;;;36.90;21.33;;;;;;;-141.97;50.96;47659.38;5012824;28;20544;-86
2022/11/08 11:21:08;;;;;;;36.50;22.73;;;;;;;-141.97;51.91;47684.38;5010774;28;20217;-85
2022/11/08 11:23:37;;;;;;;36.33;22.93;;;;;;;-141.97;52.05;47669.00;5027683;28;20572;-83
2022/11/08 11:26:06;;;;;;;41.43;23.03;;;;;;;-141.97;52.29;47665.16;5021622;28;20650;-84
2022/11/08 11:28:31;;;;;;;38.40;22.73;;;;;;;-141.97;52.63;47657.47;5037979;28;20316;-86